sensor_id;sensor_type;location;lat;lon;timestamp;temperature;humidity
212;DHT22;16228;48.800;9.002;2023-05-16T00:00:09;12.40;96.90
212;DHT22;16228;48.800;9.002;2023-05-16T00:02:37;12.40;96.90
212;DHT22;16228;48.800;9.002;2023-05-16T00:05:05;12.40;96.90
212;DHT22;16228;48.800;9.002;2023-05-16T00:07:35;12.40;96.90
212;DHT22;16228;48.800;9.002;2023-05-16T00:10:03;12.40;96.90
212;DHT22;16228;48.800;9.002;2023-05-16T00:12:30;12.50;96.90
212;DHT22;16228;48.800;9.002;2023-05-16T00:14:57;12.50;96.90
212;DHT22;16228;48.800;9.002;2023-05-16T00:17:24;12.50;96.90
212;DHT22;16228;48.800;9.002;2023-05-16T00:19:55;12.50;96.90
212;DHT22;16228;48.800;9.002;2023-05-16T00:22:24;12.50;96.90
212;DHT22;16228;48.800;9.002;2023-05-16T00:24:52;12.50;96.90
212;DHT22;16228;48.800;9.002;2023-05-16T00:27:19;12.40;96.90
212;DHT22;16228;48.800;9.002;2023-05-16T00:29:46;12.40;96.90
212;DHT22;16228;48.800;9.002;2023-05-16T00:32:14;12.30;96.90
212;DHT22;16228;48.800;9.002;2023-05-16T00:34:41;12.40;96.90
212;DHT22;16228;48.800;9.002;2023-05-16T00:37:10;12.30;96.90
212;DHT22;16228;48.800;9.002;2023-05-16T00:39:37;12.30;96.90
212;DHT22;16228;48.800;9.002;2023-05-16T00:42:05;12.20;96.90
212;DHT22;16228;48.800;9.002;2023-05-16T00:44:32;12.10;96.90
212;DHT22;16228;48.800;9.002;2023-05-16T00:46:59;12.10;96.90
212;DHT22;16228;48.800;9.002;2023-05-16T00:49:27;12.10;96.90
212;DHT22;16228;48.800;9.002;2023-05-16T00:51:55;12.10;96.90
212;DHT22;16228;48.800;9.002;2023-05-16T00:54:25;12.00;96.90
212;DHT22;16228;48.800;9.002;2023-05-16T00:56:54;12.00;96.90
212;DHT22;16228;48.800;9.002;2023-05-16T00:59:22;11.90;96.90
212;DHT22;16228;48.800;9.002;2023-05-16T01:01:50;11.80;96.90
212;DHT22;16228;48.800;9.002;2023-05-16T01:04:17;11.70;96.90
212;DHT22;16228;48.800;9.002;2023-05-16T01:06:45;11.60;96.90
212;DHT22;16228;48.800;9.002;2023-05-16T01:09:12;11.60;96.90
212;DHT22;16228;48.800;9.002;2023-05-16T01:11:48;11.60;96.90
212;DHT22;16228;48.800;9.002;2023-05-16T01:14:28;11.60;96.90
212;DHT22;16228;48.800;9.002;2023-05-16T01:17:06;11.50;96.90
212;DHT22;16228;48.800;9.002;2023-05-16T01:19:46;11.50;96.90
212;DHT22;16228;48.800;9.002;2023-05-16T01:22:26;11.50;96.90
212;DHT22;16228;48.800;9.002;2023-05-16T01:25:04;11.40;96.90
212;DHT22;16228;48.800;9.002;2023-05-16T01:27:34;11.40;96.90
212;DHT22;16228;48.800;9.002;2023-05-16T01:30:13;11.40;96.90
212;DHT22;16228;48.800;9.002;2023-05-16T01:32:41;11.30;96.90
212;DHT22;16228;48.800;9.002;2023-05-16T01:35:10;11.30;96.90
212;DHT22;16228;48.800;9.002;2023-05-16T01:37:41;11.20;96.90
212;DHT22;16228;48.800;9.002;2023-05-16T01:40:16;11.20;96.90
212;DHT22;16228;48.800;9.002;2023-05-16T01:42:50;11.20;96.90
212;DHT22;16228;48.800;9.002;2023-05-16T01:45:22;11.20;96.90
212;DHT22;16228;48.800;9.002;2023-05-16T01:47:54;11.20;96.90
212;DHT22;16228;48.800;9.002;2023-05-16T01:50:27;11.20;96.90
212;DHT22;16228;48.800;9.002;2023-05-16T01:52:59;11.20;96.90
212;DHT22;16228;48.800;9.002;2023-05-16T01:55:36;11.30;96.90
212;DHT22;16228;48.800;9.002;2023-05-16T01:58:07;11.30;96.90
212;DHT22;16228;48.800;9.002;2023-05-16T02:00:34;11.30;96.90
212;DHT22;16228;48.800;9.002;2023-05-16T02:03:01;11.40;96.90
212;DHT22;16228;48.800;9.002;2023-05-16T02:05:28;11.40;96.90
212;DHT22;16228;48.800;9.002;2023-05-16T02:07:56;11.40;96.90
212;DHT22;16228;48.800;9.002;2023-05-16T02:10:23;11.40;96.90
212;DHT22;16228;48.800;9.002;2023-05-16T02:12:52;11.40;96.90
212;DHT22;16228;48.800;9.002;2023-05-16T02:15:22;11.40;96.90
212;DHT22;16228;48.800;9.002;2023-05-16T02:17:49;11.30;96.90
212;DHT22;16228;48.800;9.002;2023-05-16T02:20:16;11.30;96.90
212;DHT22;16228;48.800;9.002;2023-05-16T02:22:43;11.20;96.90
212;DHT22;16228;48.800;9.002;2023-05-16T02:25:13;11.30;96.90
212;DHT22;16228;48.800;9.002;2023-05-16T02:27:41;11.30;96.90
212;DHT22;16228;48.800;9.002;2023-05-16T02:30:09;11.20;96.90
212;DHT22;16228;48.800;9.002;2023-05-16T02:32:38;11.30;96.90
212;DHT22;16228;48.800;9.002;2023-05-16T02:35:06;11.30;96.90
212;DHT22;16228;48.800;9.002;2023-05-16T02:37:33;11.30;96.90
212;DHT22;16228;48.800;9.002;2023-05-16T02:40:01;11.20;96.90
212;DHT22;16228;48.800;9.002;2023-05-16T02:42:29;11.20;96.90
212;DHT22;16228;48.800;9.002;2023-05-16T02:44:56;11.10;96.90
212;DHT22;16228;48.800;9.002;2023-05-16T02:47:23;11.10;96.90
212;DHT22;16228;48.800;9.002;2023-05-16T02:49:52;11.10;96.90
212;DHT22;16228;48.800;9.002;2023-05-16T02:52:20;11.00;96.90
212;DHT22;16228;48.800;9.002;2023-05-16T02:54:47;11.00;96.90
212;DHT22;16228;48.800;9.002;2023-05-16T02:57:14;11.00;96.90
212;DHT22;16228;48.800;9.002;2023-05-16T02:59:41;11.00;96.90
212;DHT22;16228;48.800;9.002;2023-05-16T03:02:08;11.00;96.90
212;DHT22;16228;48.800;9.002;2023-05-16T03:04:36;11.00;96.90
212;DHT22;16228;48.800;9.002;2023-05-16T03:07:04;11.00;96.90
212;DHT22;16228;48.800;9.002;2023-05-16T03:09:31;11.00;96.90
212;DHT22;16228;48.800;9.002;2023-05-16T03:11:59;11.00;96.90
212;DHT22;16228;48.800;9.002;2023-05-16T03:14:26;11.00;96.90
212;DHT22;16228;48.800;9.002;2023-05-16T03:16:53;11.00;96.90
212;DHT22;16228;48.800;9.002;2023-05-16T03:19:20;11.10;96.90
212;DHT22;16228;48.800;9.002;2023-05-16T03:21:47;11.20;96.90
212;DHT22;16228;48.800;9.002;2023-05-16T03:24:16;11.20;96.90
212;DHT22;16228;48.800;9.002;2023-05-16T03:26:43;11.20;96.90
212;DHT22;16228;48.800;9.002;2023-05-16T03:29:10;11.30;96.90
212;DHT22;16228;48.800;9.002;2023-05-16T03:31:37;11.30;96.90
212;DHT22;16228;48.800;9.002;2023-05-16T03:34:06;11.30;96.90
212;DHT22;16228;48.800;9.002;2023-05-16T03:36:34;11.40;96.90
212;DHT22;16228;48.800;9.002;2023-05-16T03:39:01;11.50;96.90
212;DHT22;16228;48.800;9.002;2023-05-16T03:41:30;11.50;96.90
212;DHT22;16228;48.800;9.002;2023-05-16T03:43:57;11.60;96.90
212;DHT22;16228;48.800;9.002;2023-05-16T03:46:24;11.60;96.90
212;DHT22;16228;48.800;9.002;2023-05-16T03:48:51;11.60;96.90
212;DHT22;16228;48.800;9.002;2023-05-16T03:51:18;11.60;96.90
212;DHT22;16228;48.800;9.002;2023-05-16T03:53:46;11.70;96.90
212;DHT22;16228;48.800;9.002;2023-05-16T03:56:13;11.60;96.90
212;DHT22;16228;48.800;9.002;2023-05-16T03:58:42;11.70;96.90
212;DHT22;16228;48.800;9.002;2023-05-16T04:01:09;11.70;96.90
212;DHT22;16228;48.800;9.002;2023-05-16T04:03:36;11.70;96.90
212;DHT22;16228;48.800;9.002;2023-05-16T04:06:04;11.70;96.90
212;DHT22;16228;48.800;9.002;2023-05-16T04:08:31;11.80;96.90
212;DHT22;16228;48.800;9.002;2023-05-16T04:10:58;11.80;96.90
212;DHT22;16228;48.800;9.002;2023-05-16T04:13:25;11.80;96.90
212;DHT22;16228;48.800;9.002;2023-05-16T04:15:54;11.80;96.90
212;DHT22;16228;48.800;9.002;2023-05-16T04:18:21;11.90;96.90
212;DHT22;16228;48.800;9.002;2023-05-16T04:20:48;11.90;96.90
212;DHT22;16228;48.800;9.002;2023-05-16T04:23:15;11.90;96.90
212;DHT22;16228;48.800;9.002;2023-05-16T04:25:42;11.90;96.90
212;DHT22;16228;48.800;9.002;2023-05-16T04:28:09;11.90;96.90
212;DHT22;16228;48.800;9.002;2023-05-16T04:30:37;11.90;96.90
212;DHT22;16228;48.800;9.002;2023-05-16T04:33:05;11.90;96.90
212;DHT22;16228;48.800;9.002;2023-05-16T04:35:33;12.00;96.90
212;DHT22;16228;48.800;9.002;2023-05-16T04:38:00;12.00;96.90
212;DHT22;16228;48.800;9.002;2023-05-16T04:40:30;12.00;96.90
212;DHT22;16228;48.800;9.002;2023-05-16T04:42:57;12.00;96.90
212;DHT22;16228;48.800;9.002;2023-05-16T04:45:25;12.10;96.90
212;DHT22;16228;48.800;9.002;2023-05-16T04:47:52;12.10;96.90
212;DHT22;16228;48.800;9.002;2023-05-16T04:50:20;12.10;96.90
212;DHT22;16228;48.800;9.002;2023-05-16T04:52:47;12.20;96.90
212;DHT22;16228;48.800;9.002;2023-05-16T04:55:15;12.20;96.90
212;DHT22;16228;48.800;9.002;2023-05-16T04:57:42;12.20;96.90
212;DHT22;16228;48.800;9.002;2023-05-16T05:00:10;12.20;96.90
212;DHT22;16228;48.800;9.002;2023-05-16T05:02:38;12.30;96.90
212;DHT22;16228;48.800;9.002;2023-05-16T05:05:06;12.20;96.90
212;DHT22;16228;48.800;9.002;2023-05-16T05:07:35;12.20;96.90
212;DHT22;16228;48.800;9.002;2023-05-16T05:10:02;12.20;96.90
212;DHT22;16228;48.800;9.002;2023-05-16T05:12:32;12.30;96.90
212;DHT22;16228;48.800;9.002;2023-05-16T05:15:00;12.30;96.90
212;DHT22;16228;48.800;9.002;2023-05-16T05:17:27;12.30;96.90
212;DHT22;16228;48.800;9.002;2023-05-16T05:19:54;12.30;96.90
212;DHT22;16228;48.800;9.002;2023-05-16T05:22:21;12.30;96.90
212;DHT22;16228;48.800;9.002;2023-05-16T05:24:50;12.30;96.90
212;DHT22;16228;48.800;9.002;2023-05-16T05:27:17;12.40;96.90
212;DHT22;16228;48.800;9.002;2023-05-16T05:29:44;12.40;96.90
212;DHT22;16228;48.800;9.002;2023-05-16T05:32:11;12.40;96.90
212;DHT22;16228;48.800;9.002;2023-05-16T05:34:39;12.40;96.90
212;DHT22;16228;48.800;9.002;2023-05-16T05:37:06;12.40;96.90
212;DHT22;16228;48.800;9.002;2023-05-16T05:39:33;12.40;96.90
212;DHT22;16228;48.800;9.002;2023-05-16T05:42:02;12.30;96.90
212;DHT22;16228;48.800;9.002;2023-05-16T05:44:29;12.30;96.90
212;DHT22;16228;48.800;9.002;2023-05-16T05:46:56;12.30;96.90
212;DHT22;16228;48.800;9.002;2023-05-16T05:49:24;12.40;96.90
212;DHT22;16228;48.800;9.002;2023-05-16T05:51:51;12.40;96.90
212;DHT22;16228;48.800;9.002;2023-05-16T05:54:18;12.40;96.90
212;DHT22;16228;48.800;9.002;2023-05-16T05:56:46;12.50;96.90
212;DHT22;16228;48.800;9.002;2023-05-16T05:59:14;12.50;96.90
212;DHT22;16228;48.800;9.002;2023-05-16T06:01:41;12.60;96.90
212;DHT22;16228;48.800;9.002;2023-05-16T06:04:09;12.70;96.90
212;DHT22;16228;48.800;9.002;2023-05-16T06:06:37;12.70;96.90
212;DHT22;16228;48.800;9.002;2023-05-16T06:09:04;12.70;96.90
212;DHT22;16228;48.800;9.002;2023-05-16T06:11:32;12.80;96.90
212;DHT22;16228;48.800;9.002;2023-05-16T06:13:59;12.90;96.90
212;DHT22;16228;48.800;9.002;2023-05-16T06:16:27;13.00;96.90
212;DHT22;16228;48.800;9.002;2023-05-16T06:18:54;13.00;96.90
212;DHT22;16228;48.800;9.002;2023-05-16T06:21:21;13.10;96.90
212;DHT22;16228;48.800;9.002;2023-05-16T06:23:49;13.10;96.90
212;DHT22;16228;48.800;9.002;2023-05-16T06:26:16;13.20;96.90
212;DHT22;16228;48.800;9.002;2023-05-16T06:28:43;13.30;96.90
212;DHT22;16228;48.800;9.002;2023-05-16T06:31:10;13.40;96.90
212;DHT22;16228;48.800;9.002;2023-05-16T06:33:39;13.40;96.90
212;DHT22;16228;48.800;9.002;2023-05-16T06:36:06;13.50;96.90
212;DHT22;16228;48.800;9.002;2023-05-16T06:38:33;13.50;96.90
212;DHT22;16228;48.800;9.002;2023-05-16T06:41:01;13.60;96.90
212;DHT22;16228;48.800;9.002;2023-05-16T06:43:28;13.70;96.90
212;DHT22;16228;48.800;9.002;2023-05-16T06:45:55;13.70;96.90
212;DHT22;16228;48.800;9.002;2023-05-16T06:48:22;13.60;96.90
212;DHT22;16228;48.800;9.002;2023-05-16T06:50:51;13.50;96.90
212;DHT22;16228;48.800;9.002;2023-05-16T06:53:18;13.50;96.90
212;DHT22;16228;48.800;9.002;2023-05-16T06:55:45;13.50;96.90
212;DHT22;16228;48.800;9.002;2023-05-16T06:58:13;13.30;96.90
212;DHT22;16228;48.800;9.002;2023-05-16T07:00:40;13.30;96.90
212;DHT22;16228;48.800;9.002;2023-05-16T07:03:08;13.20;96.90
212;DHT22;16228;48.800;9.002;2023-05-16T07:05:36;13.20;96.90
212;DHT22;16228;48.800;9.002;2023-05-16T07:08:04;13.10;96.90
212;DHT22;16228;48.800;9.002;2023-05-16T07:10:32;13.10;96.90
212;DHT22;16228;48.800;9.002;2023-05-16T07:12:59;13.10;96.90
212;DHT22;16228;48.800;9.002;2023-05-16T07:15:26;13.10;96.90
212;DHT22;16228;48.800;9.002;2023-05-16T07:17:53;13.10;96.90
212;DHT22;16228;48.800;9.002;2023-05-16T07:20:22;13.10;96.90
212;DHT22;16228;48.800;9.002;2023-05-16T07:22:49;13.10;96.90
212;DHT22;16228;48.800;9.002;2023-05-16T07:25:17;13.10;96.90
212;DHT22;16228;48.800;9.002;2023-05-16T07:27:45;13.10;96.90
212;DHT22;16228;48.800;9.002;2023-05-16T07:30:13;13.00;96.90
212;DHT22;16228;48.800;9.002;2023-05-16T07:32:40;13.00;96.90
212;DHT22;16228;48.800;9.002;2023-05-16T07:35:08;12.90;96.90
212;DHT22;16228;48.800;9.002;2023-05-16T07:37:36;12.90;96.90
212;DHT22;16228;48.800;9.002;2023-05-16T07:40:07;12.80;96.90
212;DHT22;16228;48.800;9.002;2023-05-16T07:42:36;12.80;96.90
212;DHT22;16228;48.800;9.002;2023-05-16T07:45:04;12.70;96.90
212;DHT22;16228;48.800;9.002;2023-05-16T07:47:31;12.70;96.90
212;DHT22;16228;48.800;9.002;2023-05-16T07:49:59;12.90;96.90
212;DHT22;16228;48.800;9.002;2023-05-16T07:52:26;13.00;96.90
212;DHT22;16228;48.800;9.002;2023-05-16T07:54:53;13.00;96.90
212;DHT22;16228;48.800;9.002;2023-05-16T07:57:20;12.90;96.90
212;DHT22;16228;48.800;9.002;2023-05-16T07:59:49;12.90;96.90
212;DHT22;16228;48.800;9.002;2023-05-16T08:02:18;12.80;96.90
212;DHT22;16228;48.800;9.002;2023-05-16T08:04:45;12.70;96.90
212;DHT22;16228;48.800;9.002;2023-05-16T08:07:13;12.70;96.90
212;DHT22;16228;48.800;9.002;2023-05-16T08:09:40;12.60;96.90
212;DHT22;16228;48.800;9.002;2023-05-16T08:12:08;12.60;96.90
212;DHT22;16228;48.800;9.002;2023-05-16T08:14:35;12.60;96.90
212;DHT22;16228;48.800;9.002;2023-05-16T08:17:05;12.60;96.90
212;DHT22;16228;48.800;9.002;2023-05-16T08:19:32;12.60;96.90
212;DHT22;16228;48.800;9.002;2023-05-16T08:21:59;12.60;96.90
212;DHT22;16228;48.800;9.002;2023-05-16T08:24:26;12.60;96.90
212;DHT22;16228;48.800;9.002;2023-05-16T08:26:53;12.70;96.90
212;DHT22;16228;48.800;9.002;2023-05-16T08:29:20;12.70;96.90
212;DHT22;16228;48.800;9.002;2023-05-16T08:31:47;12.70;96.90
212;DHT22;16228;48.800;9.002;2023-05-16T08:34:16;12.70;96.90
212;DHT22;16228;48.800;9.002;2023-05-16T08:36:43;12.70;96.90
212;DHT22;16228;48.800;9.002;2023-05-16T08:39:11;12.80;96.90
212;DHT22;16228;48.800;9.002;2023-05-16T08:41:38;12.80;96.90
212;DHT22;16228;48.800;9.002;2023-05-16T08:44:06;12.90;96.90
212;DHT22;16228;48.800;9.002;2023-05-16T08:46:36;12.90;96.90
212;DHT22;16228;48.800;9.002;2023-05-16T08:49:04;12.90;96.90
212;DHT22;16228;48.800;9.002;2023-05-16T08:51:34;13.00;96.90
212;DHT22;16228;48.800;9.002;2023-05-16T08:54:05;13.10;96.90
212;DHT22;16228;48.800;9.002;2023-05-16T08:56:36;13.30;96.90
212;DHT22;16228;48.800;9.002;2023-05-16T08:59:04;13.40;96.90
212;DHT22;16228;48.800;9.002;2023-05-16T09:01:31;13.60;96.90
212;DHT22;16228;48.800;9.002;2023-05-16T09:03:59;13.70;96.90
212;DHT22;16228;48.800;9.002;2023-05-16T09:06:26;13.80;96.90
212;DHT22;16228;48.800;9.002;2023-05-16T09:08:55;13.90;96.90
212;DHT22;16228;48.800;9.002;2023-05-16T09:11:22;14.00;96.90
212;DHT22;16228;48.800;9.002;2023-05-16T09:13:50;14.10;96.90
212;DHT22;16228;48.800;9.002;2023-05-16T09:16:18;14.20;96.90
212;DHT22;16228;48.800;9.002;2023-05-16T09:18:53;14.40;96.90
212;DHT22;16228;48.800;9.002;2023-05-16T09:21:21;14.50;96.90
212;DHT22;16228;48.800;9.002;2023-05-16T09:23:49;14.30;96.90
212;DHT22;16228;48.800;9.002;2023-05-16T09:26:18;14.30;96.90
212;DHT22;16228;48.800;9.002;2023-05-16T09:28:46;14.30;96.90
212;DHT22;16228;48.800;9.002;2023-05-16T09:31:21;14.20;96.90
212;DHT22;16228;48.800;9.002;2023-05-16T09:33:51;14.20;96.90
212;DHT22;16228;48.800;9.002;2023-05-16T09:36:18;14.20;96.90
212;DHT22;16228;48.800;9.002;2023-05-16T09:38:45;14.40;96.90
212;DHT22;16228;48.800;9.002;2023-05-16T09:41:13;14.60;96.90
212;DHT22;16228;48.800;9.002;2023-05-16T09:43:42;14.80;96.90
212;DHT22;16228;48.800;9.002;2023-05-16T09:46:12;14.90;96.90
212;DHT22;16228;48.800;9.002;2023-05-16T09:48:41;14.90;96.90
212;DHT22;16228;48.800;9.002;2023-05-16T09:51:11;14.80;96.90
212;DHT22;16228;48.800;9.002;2023-05-16T09:53:38;14.50;96.90
212;DHT22;16228;48.800;9.002;2023-05-16T09:56:09;14.50;96.90
212;DHT22;16228;48.800;9.002;2023-05-16T09:58:37;14.60;96.90
212;DHT22;16228;48.800;9.002;2023-05-16T10:01:07;14.90;96.90
212;DHT22;16228;48.800;9.002;2023-05-16T10:03:36;15.20;96.90
212;DHT22;16228;48.800;9.002;2023-05-16T10:06:04;15.30;96.90
212;DHT22;16228;48.800;9.002;2023-05-16T10:08:32;15.40;96.90
212;DHT22;16228;48.800;9.002;2023-05-16T10:11:02;15.60;96.90
212;DHT22;16228;48.800;9.002;2023-05-16T10:13:31;15.60;96.90
212;DHT22;16228;48.800;9.002;2023-05-16T10:16:00;15.70;96.90
212;DHT22;16228;48.800;9.002;2023-05-16T10:18:30;15.70;96.90
212;DHT22;16228;48.800;9.002;2023-05-16T10:21:03;15.90;96.90
212;DHT22;16228;48.800;9.002;2023-05-16T10:23:32;16.20;96.90
212;DHT22;16228;48.800;9.002;2023-05-16T10:26:02;16.50;96.90
212;DHT22;16228;48.800;9.002;2023-05-16T10:28:31;16.80;96.90
212;DHT22;16228;48.800;9.002;2023-05-16T10:30:58;16.90;96.90
212;DHT22;16228;48.800;9.002;2023-05-16T10:33:28;17.10;96.90
212;DHT22;16228;48.800;9.002;2023-05-16T10:35:56;17.00;96.90
212;DHT22;16228;48.800;9.002;2023-05-16T10:38:24;16.90;96.90
212;DHT22;16228;48.800;9.002;2023-05-16T10:40:52;16.80;96.90
212;DHT22;16228;48.800;9.002;2023-05-16T10:43:24;16.80;96.90
212;DHT22;16228;48.800;9.002;2023-05-16T10:45:55;16.80;96.90
212;DHT22;16228;48.800;9.002;2023-05-16T10:48:32;16.80;96.90
212;DHT22;16228;48.800;9.002;2023-05-16T10:51:00;16.50;96.90
212;DHT22;16228;48.800;9.002;2023-05-16T10:53:30;16.00;96.90
212;DHT22;16228;48.800;9.002;2023-05-16T10:56:08;15.50;96.90
212;DHT22;16228;48.800;9.002;2023-05-16T10:58:43;15.30;96.90
212;DHT22;16228;48.800;9.002;2023-05-16T11:01:15;15.10;96.90
212;DHT22;16228;48.800;9.002;2023-05-16T11:06:53;14.90;96.90
212;DHT22;16228;48.800;9.002;2023-05-16T11:09:23;14.90;96.90
212;DHT22;16228;48.800;9.002;2023-05-16T11:12:01;14.80;96.90
212;DHT22;16228;48.800;9.002;2023-05-16T11:14:34;14.50;96.90
212;DHT22;16228;48.800;9.002;2023-05-16T11:17:07;14.30;96.90
212;DHT22;16228;48.800;9.002;2023-05-16T11:19:43;14.10;96.90
212;DHT22;16228;48.800;9.002;2023-05-16T11:22:24;14.00;96.90
212;DHT22;16228;48.800;9.002;2023-05-16T11:24:54;13.90;96.90
212;DHT22;16228;48.800;9.002;2023-05-16T11:27:26;13.80;96.90
212;DHT22;16228;48.800;9.002;2023-05-16T11:30:10;13.90;96.90
212;DHT22;16228;48.800;9.002;2023-05-16T11:32:40;14.00;96.90
212;DHT22;16228;48.800;9.002;2023-05-16T11:35:11;14.00;96.90
212;DHT22;16228;48.800;9.002;2023-05-16T11:37:40;14.00;96.90
212;DHT22;16228;48.800;9.002;2023-05-16T11:40:09;14.00;96.90
212;DHT22;16228;48.800;9.002;2023-05-16T11:42:38;13.90;96.90
212;DHT22;16228;48.800;9.002;2023-05-16T11:45:06;13.90;96.90
212;DHT22;16228;48.800;9.002;2023-05-16T11:47:36;14.00;96.90
212;DHT22;16228;48.800;9.002;2023-05-16T11:50:05;14.10;96.90
212;DHT22;16228;48.800;9.002;2023-05-16T11:52:33;14.20;96.90
212;DHT22;16228;48.800;9.002;2023-05-16T11:55:01;14.30;96.90
212;DHT22;16228;48.800;9.002;2023-05-16T11:57:31;14.40;96.90
212;DHT22;16228;48.800;9.002;2023-05-16T12:00:01;14.50;96.90
212;DHT22;16228;48.800;9.002;2023-05-16T12:02:31;14.60;96.90
212;DHT22;16228;48.800;9.002;2023-05-16T12:04:58;14.60;96.90
212;DHT22;16228;48.800;9.002;2023-05-16T12:07:27;14.50;96.90
212;DHT22;16228;48.800;9.002;2023-05-16T12:09:55;14.50;96.90
212;DHT22;16228;48.800;9.002;2023-05-16T12:12:23;14.50;96.90
212;DHT22;16228;48.800;9.002;2023-05-16T12:14:50;14.60;96.90
212;DHT22;16228;48.800;9.002;2023-05-16T12:17:17;14.50;96.90
212;DHT22;16228;48.800;9.002;2023-05-16T12:19:47;14.40;96.90
212;DHT22;16228;48.800;9.002;2023-05-16T12:22:15;14.30;96.90
212;DHT22;16228;48.800;9.002;2023-05-16T12:24:43;14.20;96.90
212;DHT22;16228;48.800;9.002;2023-05-16T12:27:11;14.10;96.90
212;DHT22;16228;48.800;9.002;2023-05-16T12:29:39;13.90;96.90
212;DHT22;16228;48.800;9.002;2023-05-16T12:32:07;13.70;96.90
212;DHT22;16228;48.800;9.002;2023-05-16T12:34:34;13.60;96.90
212;DHT22;16228;48.800;9.002;2023-05-16T12:37:01;13.40;96.90
212;DHT22;16228;48.800;9.002;2023-05-16T12:39:36;13.30;96.90
212;DHT22;16228;48.800;9.002;2023-05-16T12:42:04;13.20;96.90
212;DHT22;16228;48.800;9.002;2023-05-16T12:44:33;13.00;96.90
212;DHT22;16228;48.800;9.002;2023-05-16T12:47:01;12.90;96.90
212;DHT22;16228;48.800;9.002;2023-05-16T12:49:29;12.70;96.90
212;DHT22;16228;48.800;9.002;2023-05-16T12:51:56;12.50;96.90
212;DHT22;16228;48.800;9.002;2023-05-16T12:54:30;12.40;96.90
212;DHT22;16228;48.800;9.002;2023-05-16T12:56:57;12.50;96.90
212;DHT22;16228;48.800;9.002;2023-05-16T12:59:25;12.40;96.90
212;DHT22;16228;48.800;9.002;2023-05-16T13:01:55;12.40;96.90
212;DHT22;16228;48.800;9.002;2023-05-16T13:04:22;12.40;96.90
212;DHT22;16228;48.800;9.002;2023-05-16T13:06:49;12.40;96.90
212;DHT22;16228;48.800;9.002;2023-05-16T13:09:18;12.40;96.90
212;DHT22;16228;48.800;9.002;2023-05-16T13:11:45;12.50;96.90
212;DHT22;16228;48.800;9.002;2023-05-16T13:14:13;12.60;96.90
212;DHT22;16228;48.800;9.002;2023-05-16T13:16:40;12.60;96.90
212;DHT22;16228;48.800;9.002;2023-05-16T13:19:09;12.50;96.90
212;DHT22;16228;48.800;9.002;2023-05-16T13:21:36;12.50;96.90
212;DHT22;16228;48.800;9.002;2023-05-16T13:24:04;12.40;96.90
212;DHT22;16228;48.800;9.002;2023-05-16T13:26:32;12.50;96.90
212;DHT22;16228;48.800;9.002;2023-05-16T13:28:59;12.50;96.90
212;DHT22;16228;48.800;9.002;2023-05-16T13:31:27;12.50;96.90
212;DHT22;16228;48.800;9.002;2023-05-16T13:33:54;12.50;96.90
212;DHT22;16228;48.800;9.002;2023-05-16T13:36:22;12.50;96.90
212;DHT22;16228;48.800;9.002;2023-05-16T13:38:49;12.50;96.90
212;DHT22;16228;48.800;9.002;2023-05-16T13:41:16;12.50;96.90
212;DHT22;16228;48.800;9.002;2023-05-16T13:43:44;12.60;96.90
212;DHT22;16228;48.800;9.002;2023-05-16T13:46:11;12.50;96.90
212;DHT22;16228;48.800;9.002;2023-05-16T13:48:38;12.50;96.90
212;DHT22;16228;48.800;9.002;2023-05-16T13:51:07;12.60;96.90
212;DHT22;16228;48.800;9.002;2023-05-16T13:53:37;12.70;96.90
212;DHT22;16228;48.800;9.002;2023-05-16T13:56:04;12.70;96.90
212;DHT22;16228;48.800;9.002;2023-05-16T13:58:32;12.70;96.90
212;DHT22;16228;48.800;9.002;2023-05-16T14:00:59;12.80;96.90
212;DHT22;16228;48.800;9.002;2023-05-16T14:03:26;12.90;96.90
212;DHT22;16228;48.800;9.002;2023-05-16T14:05:53;12.80;96.90
212;DHT22;16228;48.800;9.002;2023-05-16T14:08:20;12.70;96.90
212;DHT22;16228;48.800;9.002;2023-05-16T14:10:49;12.70;96.90
212;DHT22;16228;48.800;9.002;2023-05-16T14:13:16;13.00;96.90
212;DHT22;16228;48.800;9.002;2023-05-16T14:15:43;13.30;96.90
212;DHT22;16228;48.800;9.002;2023-05-16T14:18:11;13.70;96.90
212;DHT22;16228;48.800;9.002;2023-05-16T14:20:38;14.10;96.90
212;DHT22;16228;48.800;9.002;2023-05-16T14:23:05;14.30;96.90
212;DHT22;16228;48.800;9.002;2023-05-16T14:25:33;14.50;96.90
212;DHT22;16228;48.800;9.002;2023-05-16T14:28:01;14.70;96.90
212;DHT22;16228;48.800;9.002;2023-05-16T14:30:28;14.80;96.90
212;DHT22;16228;48.800;9.002;2023-05-16T14:32:56;14.90;96.90
212;DHT22;16228;48.800;9.002;2023-05-16T14:35:24;15.10;96.90
212;DHT22;16228;48.800;9.002;2023-05-16T14:37:51;15.40;96.90
212;DHT22;16228;48.800;9.002;2023-05-16T14:40:18;15.60;96.90
212;DHT22;16228;48.800;9.002;2023-05-16T14:42:46;15.70;96.90
212;DHT22;16228;48.800;9.002;2023-05-16T14:45:15;15.70;96.90
212;DHT22;16228;48.800;9.002;2023-05-16T14:47:42;15.70;96.90
212;DHT22;16228;48.800;9.002;2023-05-16T14:50:10;15.60;96.90
212;DHT22;16228;48.800;9.002;2023-05-16T14:52:39;15.30;96.90
212;DHT22;16228;48.800;9.002;2023-05-16T14:55:06;15.30;96.90
212;DHT22;16228;48.800;9.002;2023-05-16T14:57:33;15.00;96.90
212;DHT22;16228;48.800;9.002;2023-05-16T15:00:01;14.90;96.90
212;DHT22;16228;48.800;9.002;2023-05-16T15:02:30;14.90;96.90
212;DHT22;16228;48.800;9.002;2023-05-16T15:04:57;14.80;96.90
212;DHT22;16228;48.800;9.002;2023-05-16T15:07:24;14.80;96.90
212;DHT22;16228;48.800;9.002;2023-05-16T15:09:51;14.80;96.90
212;DHT22;16228;48.800;9.002;2023-05-16T15:12:18;14.70;96.90
212;DHT22;16228;48.800;9.002;2023-05-16T15:14:45;14.60;96.90
212;DHT22;16228;48.800;9.002;2023-05-16T15:17:13;14.40;96.90
212;DHT22;16228;48.800;9.002;2023-05-16T15:19:41;14.40;96.90
212;DHT22;16228;48.800;9.002;2023-05-16T15:22:08;14.40;96.90
212;DHT22;16228;48.800;9.002;2023-05-16T15:24:36;14.40;96.90
212;DHT22;16228;48.800;9.002;2023-05-16T15:27:03;14.40;96.90
212;DHT22;16228;48.800;9.002;2023-05-16T15:29:30;14.40;96.90
212;DHT22;16228;48.800;9.002;2023-05-16T15:31:58;14.40;96.90
212;DHT22;16228;48.800;9.002;2023-05-16T15:34:28;14.40;96.90
212;DHT22;16228;48.800;9.002;2023-05-16T15:36:57;14.30;96.90
212;DHT22;16228;48.800;9.002;2023-05-16T15:39:27;14.20;96.90
212;DHT22;16228;48.800;9.002;2023-05-16T15:41:54;14.10;96.90
212;DHT22;16228;48.800;9.002;2023-05-16T15:44:21;14.00;96.90
212;DHT22;16228;48.800;9.002;2023-05-16T15:46:48;13.90;96.90
212;DHT22;16228;48.800;9.002;2023-05-16T15:49:16;13.80;96.90
212;DHT22;16228;48.800;9.002;2023-05-16T15:51:43;13.80;96.90
212;DHT22;16228;48.800;9.002;2023-05-16T15:54:11;13.80;96.90
212;DHT22;16228;48.800;9.002;2023-05-16T15:56:38;13.90;96.90
212;DHT22;16228;48.800;9.002;2023-05-16T15:59:06;14.00;96.90
212;DHT22;16228;48.800;9.002;2023-05-16T16:01:33;14.00;96.90
212;DHT22;16228;48.800;9.002;2023-05-16T16:04:00;14.10;96.90
212;DHT22;16228;48.800;9.002;2023-05-16T16:06:27;14.10;96.90
212;DHT22;16228;48.800;9.002;2023-05-16T16:08:54;14.10;96.90
212;DHT22;16228;48.800;9.002;2023-05-16T16:11:25;14.00;96.90